Time;durP1;ratioP1;P1;durP2;ratioP2;P2;SDS_P1;SDS_P2;PMS_P1;PMS_P2;Temp;Humidity;BMP_temperature;BMP_pressure;BME280_temperature;BME280_humidity;BME280_pressure;Samples;Min_cycle;Max_cycle;Signal;HPM_P1;HPM_P2
2022/10/27 00:01:25;;;;;;;21.27;12.70;;;;;;;13.56;66.48;100991.53;4977923;28;97391;-94
2022/10/27 00:03:51;;;;;;;25.33;13.30;;;;;;;13.56;66.31;100996.81;4976949;28;97277;-95
2022/10/27 00:06:17;;;;;;;23.48;14.00;;;;;;;13.56;66.43;100998.59;4995575;28;96841;-94
2022/10/27 00:08:42;;;;;;;21.60;13.35;;;;;;;13.57;66.69;100992.38;4976974;28;100596;-93
2022/10/27 00:11:08;;;;;;;22.42;13.43;;;;;;;13.57;66.26;100995.03;4990938;28;101199;-88
2022/10/27 00:13:35;;;;;;;20.42;12.98;;;;;;;13.46;66.66;100990.13;4985380;28;98181;-94
2022/10/27 00:16:03;;;;;;;19.70;12.73;;;;;;;13.55;66.51;100995.06;4974031;28;97348;-95
2022/10/27 00:18:29;;;;;;;21.30;12.95;;;;;;;13.58;66.71;101004.66;4981051;28;98049;-93
2022/10/27 00:21:02;;;;;;;22.17;13.32;;;;;;;13.57;66.57;100997.66;4987366;28;100160;-86
2022/10/27 00:23:27;;;;;;;23.70;13.25;;;;;;;13.45;66.76;100977.00;4978086;28;97999;-95
2022/10/27 00:25:54;;;;;;;22.25;13.90;;;;;;;13.43;66.63;100984.97;4993936;28;97030;-94
2022/10/27 00:28:20;;;;;;;20.52;12.55;;;;;;;13.46;66.49;100978.72;4997863;28;97965;-95
2022/10/27 00:30:46;;;;;;;21.55;12.95;;;;;;;13.52;67.04;101003.09;4981655;28;100218;-91
2022/10/27 00:33:11;;;;;;;22.40;13.25;;;;;;;13.57;66.77;101002.94;4991657;28;96921;-93
2022/10/27 00:35:37;;;;;;;21.23;13.13;;;;;;;13.61;66.92;101007.19;4982006;28;97126;-93
2022/10/27 00:38:02;;;;;;;27.45;13.18;;;;;;;13.55;66.87;100995.06;4995237;28;100890;-93
2022/10/27 00:40:28;;;;;;;21.77;12.50;;;;;;;13.61;67.23;101009.81;4981976;28;100320;-94
2022/10/27 00:42:53;;;;;;;20.70;12.68;;;;;;;13.59;67.03;100998.47;4976393;28;98471;-94
2022/10/27 00:45:20;;;;;;;22.65;12.95;;;;;;;13.57;67.39;101013.50;4975697;28;97291;-93
2022/10/27 00:47:46;;;;;;;17.65;11.68;;;;;;;13.56;67.10;101010.00;5000321;28;97784;-92
2022/10/27 00:50:15;;;;;;;21.23;13.20;;;;;;;13.52;67.31;101007.50;4998143;28;97852;-92
2022/10/27 00:52:47;;;;;;;19.17;12.40;;;;;;;13.56;66.95;101012.63;4960575;28;96811;-86
2022/10/27 00:55:15;;;;;;;18.67;11.95;;;;;;;13.55;67.12;101005.63;4984257;28;97457;-91
2022/10/27 00:57:43;;;;;;;19.35;12.35;;;;;;;13.53;66.93;101014.53;5013409;28;101296;-88
2022/10/27 01:00:09;;;;;;;23.52;12.18;;;;;;;13.50;67.20;101014.63;4985507;28;101337;-93
2022/10/27 01:02:34;;;;;;;20.20;12.77;;;;;;;13.35;66.53;100994.91;4980120;28;97108;-90
2022/10/27 01:05:05;;;;;;;20.65;12.77;;;;;;;13.48;67.11;101027.88;4964434;28;96695;-86
2022/10/27 01:07:30;;;;;;;20.40;12.98;;;;;;;13.46;67.30;101029.69;4989822;28;98401;-92
2022/10/27 01:09:56;;;;;;;21.48;13.23;;;;;;;13.44;67.11;101023.63;4976348;28;101171;-94
2022/10/27 01:12:21;;;;;;;19.77;11.95;;;;;;;13.45;66.94;101027.13;5012663;28;96773;-93
2022/10/27 01:14:47;;;;;;;20.67;12.18;;;;;;;13.41;66.79;101022.84;4960606;28;97283;-89
2022/10/27 01:17:33;;;;;;;17.60;11.90;;;;;;;13.35;66.63;101019.53;4986253;28;100989;-92
2022/10/27 01:20:14;;;;;;;23.88;13.10;;;;;;;13.32;67.41;101026.66;4971573;28;99857;-95
2022/10/27 01:22:55;;;;;;;20.37;12.53;;;;;;;13.27;67.30;101026.84;5030172;27;96103;-86
2022/10/27 01:25:41;;;;;;;20.67;12.20;;;;;;;13.26;67.24;101025.09;5014918;28;97051;-94
2022/10/27 01:28:31;;;;;;;22.85;12.18;;;;;;;13.17;66.73;101009.56;4967653;28;102127;-93
2022/10/27 01:31:19;;;;;;;19.20;12.35;;;;;;;13.22;67.07;101027.88;4980320;28;101250;-95
2022/10/27 01:33:47;;;;;;;17.95;12.30;;;;;;;13.21;66.87;101037.56;4976299;28;97469;-85
2022/10/27 01:36:25;;;;;;;17.52;10.80;;;;;;;13.18;66.77;101028.88;4998364;28;96916;-94
2022/10/27 01:39:16;;;;;;;20.73;11.70;;;;;;;13.19;66.49;101033.25;4979124;28;100401;-94
2022/10/27 01:41:51;;;;;;;21.73;13.10;;;;;;;13.01;66.58;101005.72;4993521;28;98522;-86
2022/10/27 01:44:21;;;;;;;20.45;13.23;;;;;;;13.12;67.22;101036.09;4973590;27;96948;-90
2022/10/27 01:46:48;;;;;;;17.48;12.10;;;;;;;13.14;66.60;101039.50;5005264;27;95959;-92
2022/10/27 01:49:14;;;;;;;17.92;11.68;;;;;;;13.12;66.99;101035.25;5000025;28;101538;-94
2022/10/27 01:51:39;;;;;;;18.55;11.88;;;;;;;13.13;66.74;101035.16;4995123;28;98287;-92
2022/10/27 01:54:05;;;;;;;19.05;11.65;;;;;;;13.11;66.48;101051.94;5000263;28;96765;-90
2022/10/27 01:56:33;;;;;;;20.38;11.50;;;;;;;13.06;66.33;101038.94;4980523;28;97163;-94
2022/10/27 01:59:20;;;;;;;21.48;12.52;;;;;;;13.04;66.83;101051.28;5003443;28;100118;-95
2022/10/27 02:02:06;;;;;;;18.48;12.07;;;;;;;13.03;66.64;101046.06;4995125;28;101251;-94
2022/10/27 02:04:35;;;;;;;18.73;11.48;;;;;;;12.86;66.89;101031.66;4991160;28;96736;-93
2022/10/27 02:07:09;;;;;;;17.27;12.48;;;;;;;12.86;67.03;101026.41;4989992;28;97338;-92
2022/10/27 02:09:37;;;;;;;20.35;11.73;;;;;;;12.96;66.21;101048.03;5001628;28;98749;-87
2022/10/27 02:12:08;;;;;;;20.27;11.68;;;;;;;12.95;66.42;101048.09;4991063;28;101356;-95
2022/10/27 02:14:34;;;;;;;18.13;11.48;;;;;;;12.93;66.32;101050.78;4986270;28;97565;-93
2022/10/27 02:17:01;;;;;;;26.55;12.63;;;;;;;12.78;66.13;101023.16;4983873;28;97541;-94
2022/10/27 02:19:32;;;;;;;18.67;11.40;;;;;;;12.93;66.34;101053.41;4975578;28;101535;-94
2022/10/27 02:22:00;;;;;;;17.63;12.52;;;;;;;12.87;66.73;101057.09;4976739;28;100007;-90
2022/10/27 02:24:26;;;;;;;19.98;11.70;;;;;;;12.85;66.38;101058.06;4999885;28;97939;-93
2022/10/27 02:26:56;;;;;;;18.73;12.13;;;;;;;12.86;66.55;101070.34;4995684;28;96885;-92
2022/10/27 02:29:26;;;;;;;19.27;11.68;;;;;;;12.83;66.60;101060.75;4981734;28;98568;-94
2022/10/27 02:31:55;;;;;;;17.65;10.57;;;;;;;12.85;66.54;101068.59;4982107;28;101313;-95
2022/10/27 02:34:23;;;;;;;20.85;11.95;;;;;;;12.79;66.45;101058.25;4986558;28;96859;-94
2022/10/27 02:36:48;;;;;;;19.40;12.35;;;;;;;12.80;66.52;101073.13;4983371;28;98058;-91
2022/10/27 02:39:14;;;;;;;19.67;12.35;;;;;;;12.77;66.59;101070.59;4994858;28;101005;-93
2022/10/27 02:41:39;;;;;;;19.63;12.68;;;;;;;12.74;66.11;101065.44;4975122;28;101334;-90
2022/10/27 02:44:05;;;;;;;22.45;13.43;;;;;;;12.76;66.54;101076.78;4983623;28;97175;-92
2022/10/27 02:46:30;;;;;;;20.65;11.93;;;;;;;12.66;66.13;101055.16;5015537;28;97176;-96
2022/10/27 02:48:56;;;;;;;20.45;11.40;;;;;;;12.71;66.51;101062.88;4983992;28;98525;-93
2022/10/27 02:51:22;;;;;;;22.30;12.30;;;;;;;12.74;66.41;101062.78;5025757;27;97921;-88
2022/10/27 02:53:47;;;;;;;23.98;13.50;;;;;;;12.70;66.66;101062.03;4995509;28;97119;-90
2022/10/27 02:56:13;;;;;;;17.98;12.15;;;;;;;12.62;66.41;101053.50;5010792;28;97505;-93
2022/10/27 02:58:38;;;;;;;19.63;12.65;;;;;;;12.65;66.52;101064.81;4982925;28;100760;-94
2022/10/27 03:01:04;;;;;;;24.02;12.93;;;;;;;12.66;66.17;101065.69;4995887;28;98382;-91
2022/10/27 03:03:30;;;;;;;18.63;12.85;;;;;;;12.67;66.45;101073.53;4990380;28;97094;-95
2022/10/27 03:05:55;;;;;;;19.80;11.98;;;;;;;12.62;66.75;101066.66;4990807;28;97016;-91
2022/10/27 03:08:21;;;;;;;20.60;13.82;;;;;;;12.71;66.38;101061.13;4984979;28;100184;-93
2022/10/27 03:10:46;;;;;;;19.35;13.45;;;;;;;12.63;66.66;101078.94;4969493;28;101207;-85
2022/10/27 03:13:12;;;;;;;17.17;11.50;;;;;;;12.56;66.43;101061.59;4989984;28;96910;-94
2022/10/27 03:15:37;;;;;;;18.00;11.90;;;;;;;12.57;66.44;101068.59;4984215;28;97634;-91
2022/10/27 03:18:03;;;;;;;20.95;11.98;;;;;;;12.61;66.41;101078.97;4964910;28;100219;-94
2022/10/27 03:20:29;;;;;;;21.85;13.15;;;;;;;12.50;66.21;101062.63;4995409;28;97117;-87
2022/10/27 03:22:55;;;;;;;19.48;12.40;;;;;;;12.58;66.20;101079.06;4998409;28;96959;-94
2022/10/27 03:25:20;;;;;;;23.38;13.40;;;;;;;12.52;66.21;101076.63;4978337;28;97410;-93
2022/10/27 03:27:49;;;;;;;25.65;13.70;;;;;;;12.53;66.17;101083.63;4962846;28;100378;-88
2022/10/27 03:30:15;;;;;;;19.30;12.35;;;;;;;12.56;66.46;101098.47;5002855;28;100414;-93
2022/10/27 03:32:46;;;;;;;18.65;12.75;;;;;;;12.54;66.08;101095.03;4996166;28;97075;-93
2022/10/27 03:35:12;;;;;;;24.20;12.32;;;;;;;12.46;66.73;101088.22;4990288;28;98186;-89
2022/10/27 03:37:37;;;;;;;23.75;13.80;;;;;;;12.51;66.58;101097.72;4992474;28;100670;-94
2022/10/27 03:40:03;;;;;;;21.23;12.52;;;;;;;12.46;66.58;101087.34;4983721;28;98410;-94
2022/10/27 03:42:29;;;;;;;26.50;12.90;;;;;;;12.50;66.46;101094.25;4960165;28;96879;-92
2022/10/27 03:44:54;;;;;;;17.55;11.90;;;;;;;12.50;66.97;101101.28;4985058;28;97687;-95
2022/10/27 03:47:20;;;;;;;23.63;12.02;;;;;;;12.50;66.94;101114.44;5000264;28;98173;-96
2022/10/27 03:49:45;;;;;;;20.50;13.20;;;;;;;12.46;67.05;101117.19;4972247;28;101752;-95
2022/10/27 03:52:11;;;;;;;21.20;12.50;;;;;;;12.48;67.34;101114.50;4972776;28;96624;-96
2022/10/27 03:54:36;;;;;;;23.40;12.48;;;;;;;12.48;67.30;101118.88;4991529;28;96958;-92
2022/10/27 03:57:02;;;;;;;21.42;11.93;;;;;;;12.36;66.55;101092.03;5003282;28;100429;-95
2022/10/27 03:59:28;;;;;;;18.55;12.30;;;;;;;12.43;67.41;101117.25;4995616;28;99038;-96
2022/10/27 04:01:53;;;;;;;20.65;11.55;;;;;;;12.42;67.21;101126.09;4994183;28;96881;-96
2022/10/27 04:04:19;;;;;;;23.20;12.45;;;;;;;12.44;66.76;101120.75;4975329;28;96961;-96
2022/10/27 04:06:44;;;;;;;25.33;13.13;;;;;;;12.42;66.88;101120.81;4991717;28;100440;-95
2022/10/27 04:09:10;;;;;;;20.55;12.23;;;;;;;12.33;66.99;101099.13;4978293;28;101099;-96
2022/10/27 04:11:35;;;;;;;23.70;12.85;;;;;;;12.40;66.78;101116.50;4993243;28;97376;-89
2022/10/27 04:14:01;;;;;;;24.33;12.68;;;;;;;12.35;67.25;101107.88;4978291;28;97054;-96
2022/10/27 04:16:26;;;;;;;22.95;12.93;;;;;;;12.36;66.86;101115.72;4961944;28;101854;-96
2022/10/27 04:18:52;;;;;;;18.98;11.68;;;;;;;12.37;66.76;101122.72;4993187;28;101164;-95
2022/10/27 04:21:17;;;;;;;23.52;13.00;;;;;;;12.33;66.65;101114.94;4977669;28;97264;-94
2022/10/27 04:23:44;;;;;;;22.00;12.43;;;;;;;12.34;67.24;101111.41;4979087;28;97267;-95
2022/10/27 04:26:10;;;;;;;23.25;12.88;;;;;;;12.30;66.74;101123.78;4979765;28;98087;-93
2022/10/27 04:28:35;;;;;;;24.08;13.57;;;;;;;12.30;67.26;101118.50;4975622;28;101893;-90
2022/10/27 04:31:01;;;;;;;23.15;12.70;;;;;;;12.29;67.25;101118.56;4964717;28;97226;-96
2022/10/27 04:33:26;;;;;;;21.85;12.95;;;;;;;12.26;67.34;101122.16;4989154;28;97012;-95
2022/10/27 04:35:52;;;;;;;21.88;12.90;;;;;;;12.17;67.21;101098.72;4991731;28;100604;-96
2022/10/27 04:38:17;;;;;;;21.80;12.65;;;;;;;12.27;67.14;101120.38;4975637;28;100649;-95
2022/10/27 04:40:43;;;;;;;26.35;12.68;;;;;;;12.26;67.56;101124.78;4977354;28;97193;-96
2022/10/27 04:43:08;;;;;;;25.67;12.70;;;;;;;12.25;66.94;101130.97;5011702;28;97322;-91
2022/10/27 04:45:34;;;;;;;24.88;12.85;;;;;;;12.12;66.84;101112.00;4976342;28;100427;-94
2022/10/27 04:48:00;;;;;;;22.20;12.98;;;;;;;12.24;67.35;101135.34;5018966;28;101249;-96
2022/10/27 04:50:26;;;;;;;20.38;11.50;;;;;;;12.21;67.02;101130.16;5000984;28;97036;-95
2022/10/27 04:52:56;;;;;;;21.92;12.02;;;;;;;12.04;67.39;101107.84;4999192;28;96686;-86
2022/10/27 04:55:22;;;;;;;26.60;12.88;;;;;;;12.17;67.40;101123.28;4987088;28;100110;-96
2022/10/27 04:57:48;;;;;;;26.23;12.63;;;;;;;12.13;67.27;101115.50;4980933;28;101427;-83
2022/10/27 05:00:14;;;;;;;24.25;13.70;;;;;;;12.14;67.34;101126.00;4992418;28;97028;-84
2022/10/27 05:02:39;;;;;;;26.40;13.63;;;;;;;12.09;67.30;101121.75;4989486;28;97332;-82
2022/10/27 05:05:05;;;;;;;25.75;13.98;;;;;;;12.11;67.24;101141.88;4973925;28;101218;-79
2022/10/27 05:07:31;;;;;;;25.58;13.27;;;;;;;12.13;67.41;101150.59;4960430;28;101136;-78
2022/10/27 05:09:56;;;;;;;29.70;13.15;;;;;;;12.16;67.45;101149.66;4975928;28;96846;-81
2022/10/27 05:12:22;;;;;;;25.13;13.07;;;;;;;12.10;67.26;101131.38;4956169;28;97055;-81
2022/10/27 05:14:47;;;;;;;26.35;14.25;;;;;;;12.11;67.24;101141.88;4965047;28;101785;-79
2022/10/27 05:17:13;;;;;;;23.50;14.35;;;;;;;12.12;67.17;101150.63;4956374;28;101453;-78
2022/10/27 05:19:38;;;;;;;31.63;13.60;;;;;;;12.11;67.32;101152.41;4974214;28;97710;-77
2022/10/27 05:22:04;;;;;;;33.15;15.68;;;;;;;12.12;67.03;101148.84;4957210;28;97224;-78
2022/10/27 05:24:30;;;;;;;26.92;14.00;;;;;;;12.02;67.54;101136.00;4971802;28;100657;-82
2022/10/27 05:26:55;;;;;;;25.27;13.30;;;;;;;12.02;67.10;101139.50;4955558;28;101335;-80
2022/10/27 05:29:21;;;;;;;30.35;15.25;;;;;;;12.10;67.40;101168.22;4970679;28;97047;-80
2022/10/27 05:31:46;;;;;;;32.90;15.30;;;;;;;12.03;67.32;101159.63;4974101;28;97190;-78
2022/10/27 05:34:12;;;;;;;26.85;13.55;;;;;;;12.10;67.64;101168.22;4939245;28;101334;-79
2022/10/27 05:36:37;;;;;;;26.65;15.20;;;;;;;12.10;67.69;101173.47;4972109;28;97544;-80
2022/10/27 05:39:03;;;;;;;28.92;13.38;;;;;;;12.07;67.37;101177.09;4955086;28;97200;-81
2022/10/27 05:41:29;;;;;;;26.83;15.00;;;;;;;11.95;67.52;101158.97;4999950;28;97709;-83
2022/10/27 05:43:54;;;;;;;23.05;14.25;;;;;;;11.98;67.94;101161.50;4967830;28;101269;-85
2022/10/27 05:46:20;;;;;;;29.80;15.23;;;;;;;11.91;67.99;101149.44;4955509;28;101529;-81
2022/10/27 05:48:45;;;;;;;30.33;14.30;;;;;;;12.11;67.66;101188.38;4972661;28;97318;-78
2022/10/27 05:51:11;;;;;;;37.60;15.52;;;;;;;11.98;68.00;101162.41;4955472;28;98096;-77
2022/10/27 05:53:36;;;;;;;21.05;13.85;;;;;;;12.14;67.63;101186.53;4973268;28;101139;-79
2022/10/27 05:56:02;;;;;;;23.55;13.73;;;;;;;12.17;67.83;101182.94;4957288;28;97550;-77
2022/10/27 05:58:27;;;;;;;24.70;13.32;;;;;;;12.04;68.21;101168.38;4974096;28;97061;-77
2022/10/27 06:00:56;;;;;;;32.47;14.18;;;;;;;12.08;67.75;101177.94;4973976;28;96866;-85
2022/10/27 06:03:23;;;;;;;26.63;13.27;;;;;;;12.18;67.50;101192.56;4973737;28;98188;-78
2022/10/27 06:05:49;;;;;;;26.40;13.05;;;;;;;12.09;68.13;101171.75;4990843;28;97610;-78
2022/10/27 06:08:16;;;;;;;25.85;14.43;;;;;;;12.14;67.87;101185.66;4980034;28;97090;-77
2022/10/27 06:10:42;;;;;;;36.70;15.45;;;;;;;12.25;67.80;101202.03;4974854;28;96869;-78
2022/10/27 06:13:09;;;;;;;25.90;13.70;;;;;;;12.13;67.58;101179.53;4956068;28;101613;-81
2022/10/27 06:15:34;;;;;;;23.35;12.43;;;;;;;12.26;67.79;101205.53;4975241;28;98016;-80
2022/10/27 06:18:00;;;;;;;28.40;13.73;;;;;;;12.29;67.79;101219.47;4976732;28;96721;-81
2022/10/27 06:20:26;;;;;;;32.45;14.10;;;;;;;12.30;68.13;101221.19;4990478;28;96913;-80
2022/10/27 06:22:52;;;;;;;30.80;13.27;;;;;;;12.30;67.84;101215.91;4970704;28;97701;-79
2022/10/27 06:25:17;;;;;;;29.20;13.98;;;;;;;12.35;67.74;101226.34;4939214;28;101128;-80
2022/10/27 06:27:43;;;;;;;28.63;14.38;;;;;;;12.39;68.22;101217.44;4973292;28;97357;-80
2022/10/27 06:30:09;;;;;;;30.60;13.70;;;;;;;12.42;68.21;101227.88;4956718;28;97378;-79
2022/10/27 06:32:38;;;;;;;31.40;15.20;;;;;;;12.50;68.35;101227.69;4977311;28;98102;-81
2022/10/27 06:35:04;;;;;;;30.83;13.85;;;;;;;12.48;68.21;101224.22;4970606;28;101713;-90
2022/10/27 06:37:30;;;;;;;33.50;13.57;;;;;;;12.51;68.30;101227.66;4972360;28;97667;-79
2022/10/27 06:39:55;;;;;;;38.15;15.07;;;;;;;12.52;67.98;101233.78;4957034;28;97313;-88
2022/10/27 06:42:21;;;;;;;34.97;14.30;;;;;;;12.56;68.77;101235.41;4941021;28;101811;-80
2022/10/27 06:44:50;;;;;;;33.67;14.38;;;;;;;12.62;68.70;101243.16;4936333;28;101436;-81
2022/10/27 06:47:15;;;;;;;29.35;13.25;;;;;;;12.66;68.96;101250.06;4972197;28;97127;-79
2022/10/27 06:49:41;;;;;;;32.85;13.93;;;;;;;12.66;69.08;101245.66;4977413;28;97302;-79
2022/10/27 06:52:06;;;;;;;33.53;13.43;;;;;;;12.69;68.84;101242.94;4940740;28;101395;-80
2022/10/27 06:54:32;;;;;;;27.25;13.30;;;;;;;12.80;69.31;101247.03;4957865;28;97520;-80
2022/10/27 07:00:48;;;;;;;29.70;12.48;;;;;;;13.45;68.49;101265.34;4972511;28;96468;-80
2022/10/27 07:03:14;;;;;;;25.15;11.18;;;;;;;13.69;68.44;101254.91;4984878;28;101067;-80
2022/10/27 07:05:40;;;;;;;30.50;13.07;;;;;;;14.04;68.33;101254.63;4933888;28;100571;-76
2022/10/27 07:08:05;;;;;;;26.50;14.32;;;;;;;14.33;67.46;101255.41;4970567;28;97196;-77
2022/10/27 07:10:31;;;;;;;28.52;11.55;;;;;;;14.61;66.77;101260.63;4954023;28;96992;-82
2022/10/27 07:12:58;;;;;;;27.35;13.15;;;;;;;14.85;66.38;101250.91;4952925;28;101351;-84
2022/10/27 07:15:32;;;;;;;22.42;11.82;;;;;;;15.13;66.09;101260.47;4951205;28;100924;-83
2022/10/27 07:17:59;;;;;;;23.85;11.15;;;;;;;15.25;65.71;101241.47;4973163;28;97434;-88
2022/10/27 07:20:26;;;;;;;26.35;11.55;;;;;;;15.63;65.23;101263.78;4967916;28;97128;-90
2022/10/27 07:22:51;;;;;;;27.30;11.38;;;;;;;15.82;65.12;101265.69;4963133;28;101508;-83
2022/10/27 07:25:17;;;;;;;18.35;10.48;;;;;;;16.04;65.01;101266.53;4934282;28;101564;-82
2022/10/27 07:27:52;;;;;;;21.23;10.10;;;;;;;16.29;64.60;101263.72;4972077;28;96731;-83
2022/10/27 07:30:19;;;;;;;32.22;10.45;;;;;;;16.51;64.07;101255.69;4951841;28;97610;-82
2022/10/27 07:32:45;;;;;;;15.13;8.93;;;;;;;16.83;63.79;101271.13;4939780;28;101411;-82
2022/10/27 07:35:11;;;;;;;25.88;9.45;;;;;;;17.10;62.92;101282.28;4970387;28;97762;-79
2022/10/27 07:37:44;;;;;;;19.00;9.52;;;;;;;17.33;62.82;101286.50;4937538;28;97050;-79
2022/10/27 07:40:11;;;;;;;21.70;9.85;;;;;;;17.54;62.74;101281.97;4988729;28;96974;-80
2022/10/27 07:42:51;;;;;;;29.60;10.35;;;;;;;17.78;61.92;101291.47;4964198;28;101217;-81
2022/10/27 07:45:18;;;;;;;17.92;8.15;;;;;;;17.97;61.65;101294.06;4966802;28;98782;-82
2022/10/27 07:47:56;;;;;;;18.35;7.97;;;;;;;18.21;61.23;101277.81;4950838;28;96922;-79
2022/10/27 07:50:26;;;;;;;18.80;8.23;;;;;;;18.44;60.64;101292.59;4953336;28;97383;-80
2022/10/27 07:52:51;;;;;;;18.80;7.82;;;;;;;18.62;60.57;101285.47;4987390;28;101095;-81
2022/10/27 07:55:19;;;;;;;21.42;7.10;;;;;;;18.76;60.46;101278.53;4970339;28;100872;-79
2022/10/27 07:57:45;;;;;;;14.10;7.43;;;;;;;19.09;59.93;101300.75;4972339;28;97099;-79
2022/10/27 08:00:13;;;;;;;19.48;8.10;;;;;;;19.18;59.56;101279.81;4967912;28;97476;-80
2022/10/27 08:02:40;;;;;;;14.77;7.68;;;;;;;19.49;59.20;101295.88;4953628;28;98189;-80
2022/10/27 08:05:06;;;;;;;13.98;7.20;;;;;;;19.71;58.89;101304.41;4946868;28;101595;-80
2022/10/27 08:07:32;;;;;;;19.45;8.07;;;;;;;19.79;58.54;101286.19;4954127;28;97218;-79
2022/10/27 08:09:57;;;;;;;18.77;6.85;;;;;;;20.11;58.35;101304.78;4951160;28;97257;-84
2022/10/27 08:12:23;;;;;;;13.63;6.65;;;;;;;20.27;57.80;101305.56;4970699;28;101305;-79
2022/10/27 08:14:48;;;;;;;12.15;5.82;;;;;;;20.52;57.47;101309.47;4950494;28;98096;-80
2022/10/27 08:17:14;;;;;;;12.27;5.95;;;;;;;20.69;57.12;101297.81;4947102;28;97134;-80
2022/10/27 08:19:40;;;;;;;14.20;6.63;;;;;;;21.00;56.60;101308.31;4970149;28;97289;-80
2022/10/27 08:22:06;;;;;;;11.00;5.93;;;;;;;21.20;56.11;101306.19;4955005;28;101521;-81
2022/10/27 08:24:31;;;;;;;10.63;5.30;;;;;;;21.46;55.55;101308.09;4967955;28;97611;-80
2022/10/27 08:26:57;;;;;;;11.30;5.55;;;;;;;21.60;55.43;101309.03;4939067;28;96706;-79
2022/10/27 08:29:22;;;;;;;10.75;5.38;;;;;;;21.78;55.16;101309.66;4953820;28;97658;-79
2022/10/27 08:31:48;;;;;;;12.80;5.15;;;;;;;21.98;54.70;101311.84;4952746;28;101278;-78
2022/10/27 08:34:13;;;;;;;10.05;4.70;;;;;;;22.29;54.26;101312.53;4933958;28;101103;-79
2022/10/27 08:36:39;;;;;;;11.27;4.72;;;;;;;22.52;53.44;101302.94;4970545;28;97995;-79
2022/10/27 08:39:05;;;;;;;10.35;4.93;;;;;;;22.71;52.58;101314.06;4953856;28;97251;-79
2022/10/27 08:41:39;;;;;;;9.23;4.68;;;;;;;23.03;51.96;101317.19;4971223;28;98127;-77
2022/10/27 08:44:12;;;;;;;12.57;5.70;;;;;;;23.20;51.32;101301.75;4952547;28;101081;-78
2022/10/27 08:46:44;;;;;;;10.57;5.00;;;;;;;23.40;50.92;101303.00;4971221;28;96785;-77
2022/10/27 08:49:36;;;;;;;9.38;5.32;;;;;;;23.80;50.15;101317.03;4954764;28;96977;-78
2022/10/27 08:52:09;;;;;;;11.05;4.72;;;;;;;24.05;49.56;101324.09;4951342;28;101533;-77
2022/10/27 08:54:35;;;;;;;10.80;4.68;;;;;;;24.17;49.55;101315.16;4972769;28;97843;-80
2022/10/27 08:57:02;;;;;;;12.40;4.03;;;;;;;24.41;49.30;101322.31;4957466;28;96805;-81
2022/10/27 08:59:30;;;;;;;8.75;4.55;;;;;;;24.61;48.35;101315.44;4989938;28;97365;-77
2022/10/27 09:02:22;;;;;;;12.75;3.95;;;;;;;24.94;47.58;101327.19;4973547;28;100711;-77
2022/10/27 09:05:30;;;;;;;9.07;4.75;;;;;;;25.04;47.39;101325.47;4967646;28;97113;-78
2022/10/27 09:08:11;;;;;;;15.00;4.55;;;;;;;25.22;47.03;101321.38;4962729;28;98031;-77
2022/10/27 09:10:43;;;;;;;9.68;4.18;;;;;;;25.45;46.97;101329.38;4982452;28;97354;-78
2022/10/27 09:13:12;;;;;;;10.95;4.30;;;;;;;25.68;46.00;101323.00;4956421;28;97800;-78
2022/10/27 09:15:37;;;;;;;9.55;4.32;;;;;;;25.83;45.99;101304.78;4974607;28;97499;-78
2022/10/27 09:18:26;;;;;;;9.70;4.50;;;;;;;25.84;47.96;101319.09;4972919;28;97138;-80
2022/10/27 09:20:55;;;;;;;7.68;4.20;;;;;;;26.03;46.25;101321.09;4958376;28;96942;-79
2022/10/27 09:23:43;;;;;;;7.03;4.15;;;;;;;26.11;45.12;101308.69;4973925;28;97525;-78
2022/10/27 09:26:10;;;;;;;6.85;4.15;;;;;;;26.23;45.08;101301.44;4970541;28;99920;-79
2022/10/27 09:28:51;;;;;;;9.07;4.63;;;;;;;26.53;44.43;101314.16;4940356;28;96982;-79
2022/10/27 09:31:39;;;;;;;12.30;4.50;;;;;;;26.63;44.11;101316.91;4972722;28;97253;-78
2022/10/27 09:34:29;;;;;;;12.10;4.25;;;;;;;26.67;44.03;101279.78;4972956;28;98060;-78
2022/10/27 09:36:56;;;;;;;7.90;3.22;;;;;;;26.89;43.86;101308.41;4975770;28;97575;-78
2022/10/27 09:39:22;;;;;;;10.25;4.40;;;;;;;27.01;43.59;101304.63;4955643;28;96971;-78
2022/10/27 09:41:48;;;;;;;8.20;4.32;;;;;;;26.97;43.25;101287.03;4992643;28;96918;-78
2022/10/27 09:44:18;;;;;;;7.47;3.58;;;;;;;26.97;43.41;101300.50;4971794;28;101169;-78
2022/10/27 09:46:45;;;;;;;9.15;4.00;;;;;;;26.76;43.83;101293.31;4956684;28;101489;-78
2022/10/27 09:49:11;;;;;;;8.02;3.72;;;;;;;26.74;43.89;101297.13;4972931;28;97158;-78
2022/10/27 09:52:00;;;;;;;12.07;5.68;;;;;;;26.50;43.64;101297.41;4970604;28;96792;-78
2022/10/27 09:54:30;;;;;;;16.48;5.40;;;;;;;26.22;45.00;101305.13;4946253;28;101570;-79
2022/10/27 09:57:27;;;;;;;12.32;3.90;;;;;;;26.21;45.13;101306.09;4952728;28;101075;-81
2022/10/27 10:00:23;;;;;;;12.85;4.40;;;;;;;26.19;45.18;101303.53;4960705;28;97571;-78
2022/10/27 10:03:08;;;;;;;9.95;4.38;;;;;;;25.90;45.37;101292.53;4971413;28;97268;-79
2022/10/27 10:05:35;;;;;;;15.40;4.40;;;;;;;25.77;45.88;101302.56;4983707;28;97927;-80
2022/10/27 10:08:23;;;;;;;10.38;3.88;;;;;;;25.68;46.05;101281.81;4954898;28;101401;-78
2022/10/27 10:11:05;;;;;;;8.38;3.92;;;;;;;25.58;46.52;101297.84;4969055;28;96755;-80
2022/10/27 10:13:32;;;;;;;10.32;4.20;;;;;;;25.43;46.86;101310.72;4981306;28;97168;-80
2022/10/27 10:16:18;;;;;;;9.60;4.32;;;;;;;25.25;47.29;101309.53;4953419;28;100818;-78
2022/10/27 10:19:03;;;;;;;10.73;5.03;;;;;;;25.00;47.48;101310.59;4970738;28;101320;-77
2022/10/27 10:21:52;;;;;;;9.30;3.80;;;;;;;24.88;48.22;101307.03;4972255;28;97224;-77
2022/10/27 10:24:28;;;;;;;9.82;3.78;;;;;;;24.69;48.60;101291.50;4957502;28;97123;-78
2022/10/27 10:26:59;;;;;;;7.80;4.03;;;;;;;24.63;49.04;101308.09;4954818;28;98316;-77
2022/10/27 10:29:34;;;;;;;11.32;5.30;;;;;;;24.44;48.78;101313.19;4969120;28;97762;-79
2022/10/27 10:32:09;;;;;;;10.95;5.00;;;;;;;24.16;49.58;101313.41;4969434;28;97667;-77
2022/10/27 10:34:34;;;;;;;12.15;4.53;;;;;;;24.06;50.01;101311.56;4972213;28;96846;-77
2022/10/27 10:37:00;;;;;;;10.05;4.57;;;;;;;23.93;50.35;101314.28;4971547;28;101461;-77
2022/10/27 10:39:33;;;;;;;10.80;4.18;;;;;;;23.73;50.56;101297.84;4971903;28;97930;-77
2022/10/27 10:42:17;;;;;;;8.13;4.35;;;;;;;23.60;51.03;101307.75;4989400;28;96701;-79
2022/10/27 10:44:43;;;;;;;9.57;4.25;;;;;;;23.54;51.50;101302.00;4952747;28;97736;-80
2022/10/27 10:47:29;;;;;;;9.98;4.82;;;;;;;23.43;51.45;101313.50;4952320;28;101642;-79
2022/10/27 10:50:01;;;;;;;14.43;4.93;;;;;;;23.30;51.90;101309.97;4972190;28;101059;-79
2022/10/27 10:52:36;;;;;;;15.88;5.10;;;;;;;23.25;52.34;101310.31;4970501;28;97109;-79
2022/10/27 10:55:19;;;;;;;8.85;5.30;;;;;;;23.05;52.84;101293.84;4956229;28;96882;-79
2022/10/27 10:57:47;;;;;;;9.57;4.63;;;;;;;23.08;53.04;101303.50;4939138;28;101694;-79
2022/10/27 11:00:15;;;;;;;16.25;5.00;;;;;;;22.95;53.03;101307.97;4964798;28;100813;-79
2022/10/27 11:02:41;;;;;;;10.93;5.28;;;;;;;22.79;53.38;101306.34;4975088;28;97176;-79
2022/10/27 11:05:12;;;;;;;14.27;5.15;;;;;;;22.64;53.48;101290.53;4974080;28;97010;-79
2022/10/27 11:07:39;;;;;;;14.27;5.30;;;;;;;22.69;54.00;101302.63;5006063;28;101191;-79
2022/10/27 11:10:20;;;;;;;9.90;4.88;;;;;;;22.60;54.51;101313.94;4990507;28;101010;-81
2022/10/27 11:12:49;;;;;;;8.68;4.72;;;;;;;22.57;54.55;101306.13;4991560;28;96858;-79
2022/10/27 11:15:18;;;;;;;10.27;4.85;;;;;;;22.53;54.50;101313.50;4990987;28;96986;-79
2022/10/27 11:17:47;;;;;;;9.43;4.50;;;;;;;22.36;54.96;101313.81;4990605;28;101324;-78
2022/10/27 11:20:19;;;;;;;10.30;4.68;;;;;;;22.26;55.18;101304.72;5007674;28;97947;-76
2022/10/27 11:22:46;;;;;;;14.70;5.18;;;;;;;22.17;55.31;101298.16;4973796;28;97320;-77